Time;durP1;ratioP1;P1;durP2;ratioP2;P2;SDS_P1;SDS_P2;PMS_P1;PMS_P2;Temp;Humidity;BMP_temperature;BMP_pressure;BME280_temperature;BME280_humidity;BME280_pressure;Samples;Min_cycle;Max_cycle;Signal;HPM_P1;HPM_P2
2022/04/23 00:00:57;;;;;;;14.82;7.53;;;18.60;49.00;;;;;;7392055;19;20047;-76
2022/04/23 00:03:26;;;;;;;10.80;8.05;;;18.60;49.00;;;;;;7372660;19;20074;-77
2022/04/23 00:05:54;;;;;;;17.23;8.90;;;18.60;49.00;;;;;;7372129;19;20072;-76
2022/04/23 00:08:26;;;;;;;14.25;8.43;;;18.60;49.20;;;;;;7370399;19;20633;-76
2022/04/23 00:10:54;;;;;;;11.57;8.65;;;18.60;49.20;;;;;;7370156;19;20010;-77
2022/04/23 00:13:23;;;;;;;12.40;8.15;;;18.50;49.10;;;;;;7368953;19;20015;-76
2022/04/23 00:15:53;;;;;;;14.70;8.75;;;18.50;49.40;;;;;;7394113;19;20032;-76
2022/04/23 00:18:22;;;;;;;10.85;8.15;;;18.50;49.60;;;;;;7369273;19;20074;-77
2022/04/23 00:20:50;;;;;;;11.07;8.27;;;18.40;49.60;;;;;;7372193;19;20018;-77
2022/04/23 00:23:19;;;;;;;13.45;8.35;;;18.30;49.90;;;;;;7371284;19;20019;-76
2022/04/23 00:25:52;;;;;;;12.43;8.18;;;18.20;50.10;;;;;;7373663;19;20017;-76
2022/04/23 00:28:20;;;;;;;12.70;9.18;;;18.10;50.30;;;;;;7372166;19;20041;-77
2022/04/23 00:30:52;;;;;;;13.82;8.55;;;18.10;50.40;;;;;;7391279;19;20025;-77
2022/04/23 00:33:21;;;;;;;12.48;8.13;;;18.10;50.70;;;;;;7371101;19;20063;-77
2022/04/23 00:35:51;;;;;;;14.95;8.07;;;18.10;50.60;;;;;;7371403;19;20082;-77
2022/04/23 00:38:19;;;;;;;15.13;8.48;;;18.00;50.60;;;;;;7371516;19;20026;-77
2022/04/23 00:40:51;;;;;;;15.05;8.93;;;18.00;50.80;;;;;;7372063;19;20014;-77
2022/04/23 00:43:28;;;;;;;12.15;8.93;;;18.00;50.80;;;;;;7368272;19;20102;-76
2022/04/23 00:45:57;;;;;;;12.90;9.13;;;17.90;51.00;;;;;;7392718;19;20593;-77
2022/04/23 00:48:28;;;;;;;16.27;9.27;;;17.90;51.00;;;;;;7370728;19;20645;-77
2022/04/23 00:50:59;;;;;;;12.50;8.98;;;17.90;51.00;;;;;;7371426;19;20011;-77
2022/04/23 00:53:28;;;;;;;12.57;8.88;;;17.90;50.90;;;;;;7367848;19;20015;-76
2022/04/23 00:56:00;;;;;;;17.50;10.55;;;17.90;51.10;;;;;;7370838;19;20430;-76
2022/04/23 00:58:30;;;;;;;18.58;9.95;;;17.90;51.10;;;;;;7372510;19;20454;-75
2022/04/23 01:00:59;;;;;;;13.63;9.40;;;17.90;51.20;;;;;;7392449;19;20035;-77
2022/04/23 01:03:28;;;;;;;18.50;10.95;;;17.80;51.20;;;;;;7370097;19;20014;-77
2022/04/23 01:05:56;;;;;;;15.23;9.68;;;17.90;51.30;;;;;;7370441;19;20088;-78
2022/04/23 01:08:25;;;;;;;15.48;9.85;;;17.80;51.20;;;;;;7370415;19;20018;-77
2022/04/23 01:10:54;;;;;;;13.48;9.98;;;17.80;51.20;;;;;;7370490;19;20090;-78
2022/04/23 01:13:26;;;;;;;19.38;12.75;;;17.80;51.30;;;;;;7367015;19;20014;-77
2022/04/23 01:16:01;;;;;;;14.30;10.45;;;17.80;51.40;;;;;;7393089;19;20383;-77
2022/04/23 01:18:30;;;;;;;15.38;9.80;;;17.70;51.40;;;;;;7371299;19;20039;-76
2022/04/23 01:21:02;;;;;;;15.07;10.18;;;17.70;51.50;;;;;;7370159;19;20114;-77
2022/04/23 01:23:32;;;;;;;14.02;10.15;;;17.70;51.70;;;;;;7373535;19;20014;-76
2022/04/23 01:26:03;;;;;;;16.63;10.13;;;17.60;51.30;;;;;;7378643;19;20052;-77
2022/04/23 01:28:36;;;;;;;16.30;10.10;;;17.60;51.60;;;;;;7376493;19;20019;-77
2022/04/23 01:31:07;;;;;;;17.38;11.18;;;17.60;51.50;;;;;;7397663;19;20462;-77
2022/04/23 01:33:36;;;;;;;15.98;10.48;;;17.60;51.50;;;;;;7374174;19;20030;-76
2022/04/23 01:36:08;;;;;;;15.40;10.30;;;17.60;51.60;;;;;;7378277;19;20391;-77
2022/04/23 01:38:37;;;;;;;15.68;10.18;;;17.60;51.70;;;;;;7377584;19;20029;-77
2022/04/23 01:41:05;;;;;;;15.10;10.13;;;17.60;51.70;;;;;;7375049;19;20026;-78
2022/04/23 01:43:34;;;;;;;14.00;10.57;;;17.60;51.60;;;;;;7374913;19;20031;-76
2022/04/23 01:46:03;;;;;;;17.75;10.98;;;17.60;51.60;;;;;;7396074;19;20014;-77
2022/04/23 01:48:32;;;;;;;14.90;10.40;;;17.60;51.40;;;;;;7376174;19;20046;-78
2022/04/23 01:51:00;;;;;;;16.70;11.20;;;17.60;51.50;;;;;;7377560;19;20022;-77
2022/04/23 01:53:32;;;;;;;15.30;10.30;;;17.60;51.50;;;;;;7375444;19;20660;-77
2022/04/23 01:56:00;;;;;;;14.88;10.43;;;17.60;51.60;;;;;;7376696;19;20094;-76
2022/04/23 01:58:29;;;;;;;16.73;10.68;;;17.60;51.80;;;;;;7376250;19;20117;-76
2022/04/23 02:00:59;;;;;;;14.40;10.48;;;17.60;51.70;;;;;;7399866;19;20093;-76
2022/04/23 02:03:29;;;;;;;14.25;10.32;;;17.60;52.30;;;;;;7376506;19;20011;-76
2022/04/23 02:05:58;;;;;;;16.38;10.68;;;17.60;51.90;;;;;;7376497;19;20129;-76
2022/04/23 02:08:27;;;;;;;15.95;10.80;;;17.60;51.80;;;;;;7376578;19;20537;-77
2022/04/23 02:10:58;;;;;;;15.50;11.38;;;17.60;51.70;;;;;;7377384;19;20027;-76
2022/04/23 02:13:27;;;;;;;;;;;17.50;51.80;;;;;;7374718;19;20039;-76
2022/04/23 02:15:56;;;;;;;17.83;11.85;;;17.60;51.90;;;;;;7398542;19;20290;-76
2022/04/23 02:18:26;;;;;;;19.17;11.63;;;17.50;51.70;;;;;;7375315;19;20765;-77
2022/04/23 02:20:55;;;;;;;22.10;12.70;;;17.40;51.80;;;;;;7375192;19;20033;-76
2022/04/23 02:23:24;;;;;;;15.60;11.50;;;17.40;52.00;;;;;;7374694;19;20011;-76
2022/04/23 02:25:53;;;;;;;17.77;11.85;;;17.30;52.10;;;;;;7372648;19;20010;-77
2022/04/23 02:28:24;;;;;;;16.60;12.05;;;17.30;52.20;;;;;;7375704;19;20026;-78
2022/04/23 02:30:53;;;;;;;20.55;12.30;;;17.30;52.30;;;;;;7394471;19;20022;-76
2022/04/23 02:33:22;;;;;;;20.20;12.68;;;17.30;52.30;;;;;;7371379;19;20031;-76
2022/04/23 02:35:51;;;;;;;20.95;12.27;;;17.30;52.20;;;;;;7375775;19;20803;-76
2022/04/23 02:38:19;;;;;;;16.98;12.35;;;17.20;52.30;;;;;;7372413;19;20038;-76
2022/04/23 02:40:48;;;;;;;16.60;12.23;;;17.20;52.30;;;;;;7375837;19;20384;-77
2022/04/23 02:43:17;;;;;;;18.75;12.85;;;17.20;52.40;;;;;;7375003;19;20082;-77
2022/04/23 02:45:48;;;;;;;18.33;12.27;;;17.20;52.30;;;;;;7398194;19;20018;-77
2022/04/23 02:48:17;;;;;;;19.50;12.35;;;17.20;52.20;;;;;;7374058;19;20018;-76
2022/04/23 02:50:46;;;;;;;18.77;12.10;;;17.20;52.30;;;;;;7373961;19;20024;-77
2022/04/23 02:53:16;;;;;;;19.25;12.57;;;17.10;52.30;;;;;;7375343;19;20086;-77
2022/04/23 02:55:46;;;;;;;20.23;12.82;;;17.10;52.30;;;;;;7373512;19;20053;-77
2022/04/23 02:58:15;;;;;;;20.20;12.90;;;17.10;52.50;;;;;;7387746;19;20014;-78
2022/04/23 03:00:44;;;;;;;17.13;11.50;;;17.10;52.60;;;;;;7396723;19;20018;-76
2022/04/23 03:03:16;;;;;;;20.80;11.40;;;17.00;52.70;;;;;;7373229;19;20074;-78
2022/04/23 03:05:44;;;;;;;;;;;17.10;52.60;;;;;;7374810;19;20039;-75
2022/04/23 03:08:14;;;;;;;16.50;12.07;;;17.10;52.50;;;;;;7372766;19;19994;-77
2022/04/23 03:10:44;;;;;;;18.15;12.30;;;17.10;52.60;;;;;;7374005;19;20023;-76
2022/04/23 03:13:14;;;;;;;19.55;12.25;;;17.00;52.60;;;;;;7394197;19;20384;-76
2022/04/23 03:15:44;;;;;;;21.98;12.73;;;17.00;53.30;;;;;;7373305;19;20011;-77
2022/04/23 03:18:16;;;;;;;21.40;13.45;;;17.00;52.80;;;;;;7373658;19;20455;-77
2022/04/23 03:20:47;;;;;;;20.65;13.30;;;16.80;52.90;;;;;;7373098;19;20479;-76
2022/04/23 03:23:15;;;;;;;18.08;13.07;;;16.80;52.90;;;;;;7375413;19;20414;-76
2022/04/23 03:25:44;;;;;;;16.95;12.75;;;16.80;53.00;;;;;;7372713;19;20011;-76
2022/04/23 03:28:14;;;;;;;20.08;13.27;;;16.80;53.00;;;;;;7392496;19;20029;-76
2022/04/23 03:30:44;;;;;;;22.17;13.55;;;16.70;53.10;;;;;;7373981;19;20024;-77
2022/04/23 03:33:13;;;;;;;17.48;13.13;;;16.70;53.20;;;;;;7373865;19;20308;-77
2022/04/23 03:35:45;;;;;;;17.70;12.82;;;16.70;53.20;;;;;;7375009;19;20011;-77
2022/04/23 03:38:13;;;;;;;;;;;16.60;53.40;;;;;;7372563;19;20020;-77
2022/04/23 03:40:42;;;;;;;21.92;14.40;;;16.60;53.60;;;;;;7375160;19;19998;-77
2022/04/23 03:43:12;;;;;;;17.25;13.27;;;16.50;53.60;;;;;;7392979;19;20439;-77
2022/04/23 03:45:41;;;;;;;25.90;14.40;;;16.50;53.60;;;;;;7371025;19;20037;-78
2022/04/23 03:48:13;;;;;;;17.65;12.38;;;16.60;53.70;;;;;;7372433;19;20014;-76
2022/04/23 03:50:44;;;;;;;;;;;16.60;53.40;;;;;;7373841;19;20912;-76
2022/04/23 03:53:12;;;;;;;20.30;13.07;;;16.70;53.40;;;;;;7370789;19;19919;-77
2022/04/23 03:55:41;;;;;;;16.08;12.48;;;16.80;53.20;;;;;;7372910;19;20023;-77
2022/04/23 03:58:10;;;;;;;17.15;12.13;;;16.80;53.10;;;;;;7396452;19;20026;-76
2022/04/23 04:00:39;;;;;;;20.20;13.50;;;16.80;53.10;;;;;;7372793;19;20018;-77
2022/04/23 04:03:08;;;;;;;16.90;12.00;;;16.80;53.10;;;;;;7370885;19;20014;-76
2022/04/23 04:05:37;;;;;;;16.67;13.07;;;16.70;53.20;;;;;;7370579;19;20022;-76
2022/04/23 04:08:11;;;;;;;18.42;12.73;;;16.70;53.40;;;;;;7370994;19;20019;-77
2022/04/23 04:10:40;;;;;;;17.15;11.90;;;16.70;53.20;;;;;;7372856;19;20026;-76
2022/04/23 04:13:09;;;;;;;17.67;12.45;;;16.70;54.00;;;;;;7393858;19;20022;-77
2022/04/23 04:15:39;;;;;;;21.58;13.52;;;16.70;53.20;;;;;;7372218;19;20483;-76
2022/04/23 04:18:09;;;;;;;18.10;13.05;;;16.70;53.30;;;;;;7371238;19;20011;-76
2022/04/23 04:20:39;;;;;;;17.85;13.15;;;16.70;53.30;;;;;;7373214;19;20526;-76
2022/04/23 04:23:11;;;;;;;18.27;12.82;;;16.60;53.30;;;;;;7371087;19;20023;-77
2022/04/23 04:25:39;;;;;;;16.85;11.80;;;16.60;53.50;;;;;;7371360;19;20093;-77
2022/04/23 04:28:09;;;;;;;19.65;13.05;;;16.50;53.60;;;;;;7391580;19;20032;-77
2022/04/23 04:33:19;;;;;;;17.85;11.40;;;16.50;53.80;;;;;;7369648;19;20007;-77
2022/04/23 04:35:47;;;;;;;16.10;11.27;;;16.50;53.90;;;;;;7372535;19;20011;-77
2022/04/23 04:38:19;;;;;;;15.57;11.70;;;16.50;54.00;;;;;;7371330;19;20031;-76
2022/04/23 04:40:47;;;;;;;16.73;11.80;;;16.50;54.00;;;;;;7372674;19;20674;-77
2022/04/23 04:43:16;;;;;;;20.25;13.20;;;16.50;53.80;;;;;;7371014;19;20396;-77
2022/04/23 04:45:45;;;;;;;18.70;12.48;;;16.50;53.80;;;;;;7392847;19;20467;-76
2022/04/23 04:48:15;;;;;;;16.35;11.52;;;16.40;53.80;;;;;;7370817;19;20101;-76
2022/04/23 04:50:44;;;;;;;15.88;11.80;;;16.40;54.10;;;;;;7372488;19;20094;-76
2022/04/23 04:53:12;;;;;;;16.30;12.07;;;16.50;54.20;;;;;;7371362;19;20025;-76
2022/04/23 04:55:44;;;;;;;17.88;12.80;;;16.50;54.10;;;;;;7366461;19;20031;-77
2022/04/23 04:58:12;;;;;;;19.60;12.68;;;16.50;54.10;;;;;;7397599;19;20025;-76
2022/04/23 05:00:41;;;;;;;15.95;12.82;;;16.50;54.20;;;;;;7378460;19;20015;-76
2022/04/23 05:03:13;;;;;;;18.55;12.27;;;16.50;54.10;;;;;;7377870;19;20086;-76
2022/04/23 05:05:44;;;;;;;16.05;11.25;;;16.50;54.10;;;;;;7378155;19;20021;-76
2022/04/23 05:08:13;;;;;;;16.08;12.00;;;16.60;54.00;;;;;;7378532;19;20327;-76
2022/04/23 05:10:45;;;;;;;17.00;12.65;;;16.60;53.90;;;;;;7378982;19;20446;-77
2022/04/23 05:13:13;;;;;;;;;;;16.60;53.80;;;;;;7396662;19;20027;-76
2022/04/23 05:15:43;;;;;;;16.60;12.40;;;16.60;53.80;;;;;;7376866;19;19929;-76
2022/04/23 05:18:12;;;;;;;17.00;12.00;;;16.50;53.80;;;;;;7376533;19;20023;-76
2022/04/23 05:20:41;;;;;;;17.23;12.23;;;16.50;54.10;;;;;;7376801;19;20035;-76
2022/04/23 05:23:09;;;;;;;17.80;12.05;;;16.50;54.10;;;;;;7379769;19;20023;-76
2022/04/23 05:25:38;;;;;;;16.75;11.80;;;16.50;54.10;;;;;;7379651;19;20031;-76
2022/04/23 05:28:10;;;;;;;14.45;11.60;;;16.50;54.00;;;;;;7399010;19;20046;-77
2022/04/23 05:30:44;;;;;;;16.95;11.70;;;16.60;53.90;;;;;;7375410;19;20035;-77
2022/04/23 05:33:13;;;;;;;16.05;11.15;;;16.70;53.70;;;;;;7373078;19;20120;-77
2022/04/23 05:35:42;;;;;;;15.48;11.57;;;16.70;53.60;;;;;;7374748;19;20089;-77
2022/04/23 05:38:10;;;;;;;16.67;11.50;;;16.80;53.60;;;;;;7375822;19;20078;-77
2022/04/23 05:40:39;;;;;;;16.95;11.55;;;16.80;53.20;;;;;;7373364;19;20102;-77
2022/04/23 05:43:10;;;;;;;15.48;11.07;;;16.90;53.50;;;;;;7396308;19;20024;-77
2022/04/23 05:45:39;;;;;;;17.10;11.50;;;16.90;53.50;;;;;;7374803;19;20032;-76
2022/04/23 05:48:08;;;;;;;14.63;11.80;;;17.00;53.20;;;;;;7374045;19;20093;-77
2022/04/23 05:50:37;;;;;;;17.35;12.05;;;17.00;52.80;;;;;;7372950;19;20419;-77
2022/04/23 05:53:06;;;;;;;16.48;11.05;;;17.10;52.70;;;;;;7371879;19;20015;-76
2022/04/23 05:55:37;;;;;;;13.98;10.63;;;17.10;52.70;;;;;;7375912;19;20016;-76
2022/04/23 05:58:06;;;;;;;17.58;11.60;;;17.20;52.60;;;;;;7395717;19;20018;-76
2022/04/23 06:00:37;;;;;;;15.35;11.18;;;17.20;52.20;;;;;;7373399;19;20029;-76
2022/04/23 06:03:06;;;;;;;;;;;17.30;52.50;;;;;;7373911;19;20090;-76
2022/04/23 06:05:35;;;;;;;20.15;12.05;;;17.40;52.60;;;;;;7374676;19;19915;-77
2022/04/23 06:08:04;;;;;;;14.25;11.63;;;17.30;52.00;;;;;;7371129;19;20042;-77
2022/04/23 06:10:32;;;;;;;20.98;11.43;;;17.30;51.90;;;;;;7375886;19;20034;-77
2022/04/23 06:13:01;;;;;;;18.27;11.45;;;17.30;52.00;;;;;;7393566;19;20029;-77
2022/04/23 06:15:30;;;;;;;19.75;11.70;;;17.30;52.00;;;;;;7374596;19;20024;-76
2022/04/23 06:18:01;;;;;;;19.45;12.38;;;17.40;52.10;;;;;;7373520;19;20017;-77
2022/04/23 06:20:30;;;;;;;15.82;11.90;;;17.40;52.10;;;;;;7373265;19;20440;-76
2022/04/23 06:22:59;;;;;;;14.18;11.15;;;17.50;51.90;;;;;;7372774;19;20023;-77
2022/04/23 06:25:28;;;;;;;14.15;11.07;;;17.50;51.90;;;;;;7371770;19;20014;-77
2022/04/23 06:27:57;;;;;;;16.48;11.68;;;17.50;51.80;;;;;;7393417;19;20653;-77
2022/04/23 06:30:26;;;;;;;17.37;11.00;;;17.50;52.00;;;;;;7224103;19;2852374;-77
2022/04/23 06:32:54;;;;;;;26.67;11.05;;;17.60;52.00;;;;;;7375644;19;20342;-76
2022/04/23 06:35:26;;;;;;;14.32;11.43;;;17.60;51.80;;;;;;7373811;19;20113;-77
2022/04/23 06:37:55;;;;;;;16.55;11.35;;;17.60;51.60;;;;;;7375316;19;20014;-75
2022/04/23 06:40:24;;;;;;;20.70;11.70;;;17.70;51.50;;;;;;7373862;19;20022;-77
2022/04/23 06:42:53;;;;;;;14.68;11.25;;;17.80;51.50;;;;;;7395362;19;20051;-76
2022/04/23 06:45:22;;;;;;;15.55;12.00;;;17.80;51.40;;;;;;7374772;19;20053;-77
2022/04/23 06:48:02;;;;;;;14.93;11.43;;;17.90;51.50;;;;;;7375465;19;20072;-77
2022/04/23 06:50:34;;;;;;;16.45;11.07;;;17.90;51.30;;;;;;7375206;19;20042;-76
2022/04/23 06:53:04;;;;;;;20.92;11.85;;;17.90;51.30;;;;;;7372648;19;20006;-77
2022/04/23 06:55:33;;;;;;;14.07;11.15;;;17.90;51.20;;;;;;7374064;19;20039;-77
2022/04/23 06:58:02;;;;;;;14.50;11.75;;;17.90;51.20;;;;;;7396999;19;20015;-76
2022/04/23 07:00:30;;;;;;;16.17;12.18;;;17.90;51.20;;;;;;7374470;19;20434;-76
2022/04/23 07:02:59;;;;;;;16.50;11.38;;;18.00;51.30;;;;;;7373615;19;20078;-77
2022/04/23 07:05:28;;;;;;;15.35;10.90;;;18.00;51.30;;;;;;7373569;19;20089;-76
2022/04/23 07:08:01;;;;;;;16.40;11.45;;;18.00;51.10;;;;;;7372341;19;20093;-76
2022/04/23 07:10:31;;;;;;;14.30;11.57;;;18.00;51.20;;;;;;7373408;19;20060;-76
2022/04/23 07:13:00;;;;;;;17.50;11.98;;;18.10;51.10;;;;;;7397142;19;20018;-77
2022/04/23 07:15:31;;;;;;;17.17;12.52;;;18.10;51.20;;;;;;7372461;19;20081;-77
2022/04/23 07:18:00;;;;;;;13.02;11.05;;;18.10;51.10;;;;;;7372184;19;20035;-78
2022/04/23 07:20:29;;;;;;;21.10;14.05;;;18.20;51.10;;;;;;7372601;19;20021;-77
2022/04/23 07:25:44;;;;;;;16.42;12.80;;;18.20;51.10;;;;;;7374275;19;20026;-76
2022/04/23 07:28:13;;;;;;;;;;;18.20;51.20;;;;;;7393644;19;20010;-76
2022/04/23 07:30:43;;;;;;;18.60;12.63;;;18.20;51.20;;;;;;7373194;19;19922;-77
2022/04/23 07:37:28;;;;;;;16.33;12.18;;;18.20;51.20;;;;;;7374836;19;20034;-77
2022/04/23 07:38:45;;;;;;;16.38;11.80;;;18.10;51.30;;;;;;7374421;19;20015;-76
2022/04/23 07:41:13;;;;;;;;;;;18.10;51.50;;;;;;7372382;19;20542;-76
2022/04/23 07:43:42;;;;;;;16.40;11.50;;;18.20;51.60;;;;;;7374342;19;19994;-76
2022/04/23 07:46:10;;;;;;;17.48;11.40;;;18.20;51.40;;;;;;7395743;19;20118;-76
2022/04/23 07:48:39;;;;;;;21.85;12.57;;;18.30;51.60;;;;;;7372136;19;20078;-76
2022/04/23 07:51:08;;;;;;;17.33;11.98;;;18.30;51.40;;;;;;7372575;19;20045;-76
2022/04/23 07:53:37;;;;;;;15.10;11.77;;;18.30;51.30;;;;;;7372824;19;20927;-76
2022/04/23 07:56:08;;;;;;;17.67;12.23;;;18.40;51.30;;;;;;7372792;19;20090;-76
2022/04/23 07:58:37;;;;;;;16.00;11.98;;;18.40;51.20;;;;;;7373628;19;20657;-76
2022/04/23 08:01:06;;;;;;;19.38;12.35;;;18.50;51.80;;;;;;7394639;19;20019;-77
2022/04/23 08:03:35;;;;;;;16.45;12.80;;;18.60;51.00;;;;;;7371908;19;20688;-76
2022/04/23 08:06:03;;;;;;;15.88;11.73;;;18.60;50.90;;;;;;7373332;19;20416;-77
2022/04/23 08:08:32;;;;;;;14.30;11.73;;;18.70;50.80;;;;;;7373394;19;20544;-76
2022/04/23 08:11:01;;;;;;;15.68;12.25;;;18.80;50.90;;;;;;7373284;19;20018;-76
2022/04/23 08:13:32;;;;;;;16.27;12.38;;;19.00;50.80;;;;;;7370157;19;20086;-75
2022/04/23 08:16:02;;;;;;;16.42;11.80;;;19.10;50.50;;;;;;7392243;19;20485;-76
2022/04/23 08:18:30;;;;;;;16.33;12.20;;;19.10;50.40;;;;;;7369943;19;20040;-76
2022/04/23 08:20:59;;;;;;;20.85;13.05;;;19.10;50.20;;;;;;7372624;19;20086;-76
2022/04/23 08:23:33;;;;;;;17.83;12.55;;;19.20;50.00;;;;;;7370605;19;20090;-76
2022/04/23 08:26:02;;;;;;;18.92;12.40;;;19.20;50.00;;;;;;7373234;19;20450;-76
2022/04/23 08:31:14;;;;;;;15.18;12.48;;;19.30;49.80;;;;;;7393974;19;20025;-76
2022/04/23 08:36:26;;;;;;;16.77;12.77;;;19.40;50.10;;;;;;7371763;19;20011;-76
2022/04/23 08:38:55;;;;;;;17.73;12.30;;;19.40;49.60;;;;;;7372832;19;20030;-76
2022/04/23 08:41:28;;;;;;;15.52;11.52;;;19.40;49.80;;;;;;7370668;19;20022;-76
2022/04/23 08:44:05;;;;;;;15.82;12.35;;;19.40;50.10;;;;;;7371927;19;20036;-76
2022/04/23 08:46:35;;;;;;;20.35;12.55;;;19.50;49.80;;;;;;7372147;19;20022;-76
2022/04/23 08:49:16;;;;;;;17.92;12.55;;;19.50;49.50;;;;;;7393474;19;20014;-76
2022/04/23 08:51:50;;;;;;;18.60;11.87;;;19.50;49.60;;;;;;7371800;19;20031;-77
2022/04/23 08:54:18;;;;;;;17.30;12.38;;;19.60;49.50;;;;;;7371096;19;20014;-76
2022/04/23 08:56:48;;;;;;;17.83;12.75;;;19.60;49.60;;;;;;7372828;19;20028;-76
2022/04/23 08:59:21;;;;;;;21.02;13.68;;;19.60;49.60;;;;;;7368633;19;20327;-76
2022/04/23 09:01:50;;;;;;;20.48;12.60;;;19.50;49.50;;;;;;7372328;19;20010;-77
2022/04/23 09:04:19;;;;;;;20.17;13.20;;;19.50;49.60;;;;;;7372393;19;20027;-77
2022/04/23 09:06:49;;;;;;;15.05;12.35;;;19.50;49.50;;;;;;7392338;19;20103;-77
2022/04/23 09:09:20;;;;;;;20.73;13.50;;;19.50;49.60;;;;;;7370571;19;20022;-76
2022/04/23 09:11:53;;;;;;;20.97;13.50;;;19.50;49.80;;;;;;7370513;19;20450;-76
2022/04/23 09:14:42;;;;;;;22.45;13.15;;;19.50;49.90;;;;;;7372156;19;20015;-76
2022/04/23 09:25:19;;;;;;;17.73;12.55;;;19.50;50.00;;;;;;7371245;19;20018;-77
2022/04/23 09:27:48;;;;;;;19.50;12.68;;;19.60;50.30;;;;;;7391825;19;20026;-76
2022/04/23 09:30:19;;;;;;;18.08;12.50;;;19.60;50.40;;;;;;7369038;19;20018;-76
2022/04/23 09:33:03;;;;;;;18.33;13.73;;;19.70;50.20;;;;;;7370776;19;20081;-76
2022/04/23 09:35:34;;;;;;;18.02;12.48;;;19.80;50.30;;;;;;7369162;19;20031;-76
2022/04/23 09:38:18;;;;;;;16.17;13.05;;;20.00;50.20;;;;;;7367941;19;20026;-76
2022/04/23 09:40:52;;;;;;;18.83;12.20;;;20.10;49.80;;;;;;7367309;19;20018;-76
2022/04/23 09:43:28;;;;;;;16.38;13.27;;;20.20;49.40;;;;;;7366921;19;20482;-76
2022/04/23 09:46:08;;;;;;;17.63;12.52;;;20.20;49.20;;;;;;7396879;19;20019;-75
2022/04/23 09:48:38;;;;;;;47.50;32.38;;;20.30;49.30;;;;;;7377061;19;20022;-75
2022/04/23 09:51:07;;;;;;;48.85;31.48;;;20.40;49.10;;;;;;7373268;19;20018;-75
2022/04/23 09:53:38;;;;;;;35.13;23.77;;;20.50;49.50;;;;;;7366298;19;20095;-75
2022/04/23 09:56:10;;;;;;;19.47;13.80;;;20.50;49.20;;;;;;7373699;19;20506;-75
2022/04/23 09:58:39;;;;;;;25.98;14.50;;;20.60;49.00;;;;;;7373744;19;20086;-75
2022/04/23 10:01:12;;;;;;;18.80;13.77;;;20.60;48.80;;;;;;7395226;19;20115;-75
2022/04/23 10:03:46;;;;;;;20.67;13.00;;;20.70;49.50;;;;;;7375324;19;20025;-76
2022/04/23 10:06:16;;;;;;;18.02;12.57;;;20.70;48.80;;;;;;7374764;19;20037;-75
2022/04/23 10:08:50;;;;;;;15.63;11.00;;;20.80;48.90;;;;;;7375949;19;20031;-77
2022/04/23 10:11:24;;;;;;;15.23;10.90;;;20.90;48.90;;;;;;7371823;19;20018;-76
2022/04/23 10:13:59;;;;;;;12.73;11.00;;;20.90;48.50;;;;;;7373566;19;20034;-75
2022/04/23 10:16:31;;;;;;;14.27;10.90;;;20.90;48.60;;;;;;7370602;19;20018;-76
2022/04/23 10:19:02;;;;;;;16.80;10.93;;;20.90;48.80;;;;;;7394206;19;20363;-75
2022/04/23 10:21:39;;;;;;;13.70;10.02;;;20.90;49.00;;;;;;7373586;19;20082;-75
2022/04/23 10:24:15;;;;;;;17.17;10.52;;;20.90;49.00;;;;;;7372910;19;20087;-76
2022/04/23 10:26:49;;;;;;;14.55;10.15;;;20.90;48.90;;;;;;7373869;19;20018;-76
2022/04/23 10:29:21;;;;;;;13.85;10.13;;;20.90;48.90;;;;;;7371682;19;20187;-75
2022/04/23 10:32:24;;;;;;;15.75;9.32;;;20.90;48.90;;;;;;7376298;19;20011;-76
2022/04/23 10:34:53;;;;;;;13.02;9.40;;;20.80;49.00;;;;;;7374553;19;20011;-77
2022/04/23 10:37:24;;;;;;;14.68;9.85;;;20.90;49.00;;;;;;7374201;19;20330;-76
2022/04/23 10:40:21;;;;;;;12.00;9.05;;;20.90;49.00;;;;;;7385724;19;20480;-76
2022/04/23 10:43:15;;;;;;;13.52;9.60;;;20.90;48.90;;;;;;7372180;19;20455;-76
2022/04/23 10:45:43;;;;;;;14.13;8.93;;;21.00;48.80;;;;;;7372160;19;20644;-76
2022/04/23 10:48:32;;;;;;;11.07;8.10;;;21.10;48.90;;;;;;7372031;19;20052;-76
2022/04/23 10:51:05;;;;;;;11.90;7.50;;;21.20;49.00;;;;;;7372938;19;20019;-76
2022/04/23 10:53:58;;;;;;;18.25;7.68;;;21.30;48.70;;;;;;7374481;19;20018;-76
2022/04/23 10:56:27;;;;;;;11.18;7.70;;;21.30;47.90;;;;;;7371642;19;20039;-76
2022/04/23 10:58:56;;;;;;;12.77;7.88;;;21.40;47.90;;;;;;7376767;19;20018;-76
2022/04/23 11:01:27;;;;;;;13.90;8.20;;;21.50;48.10;;;;;;7374395;19;20015;-76
2022/04/23 11:04:14;;;;;;;14.00;7.50;;;21.50;48.10;;;;;;7396988;19;20360;-75
2022/04/23 11:12:30;;;;;;;8.90;6.03;;;21.60;48.00;;;;;;7374269;19;20466;-75
2022/04/23 11:15:00;;;;;;;11.10;6.32;;;21.70;48.10;;;;;;7372354;19;20014;-76
2022/04/23 11:17:53;;;;;;;9.23;6.20;;;21.70;47.60;;;;;;7374423;19;20026;-75
2022/04/23 11:20:40;;;;;;;68.30;43.50;;;21.80;47.20;;;;;;7374311;19;20550;-75
2022/04/23 11:23:09;;;;;;;52.35;33.50;;;21.90;46.80;;;;;;7372397;19;20043;-75
2022/04/23 11:25:38;;;;;;;24.52;16.10;;;22.00;46.70;;;;;;7373670;19;20015;-75
2022/04/23 11:28:18;;;;;;;14.95;10.07;;;22.00;46.40;;;;;;7393030;19;20129;-75
2022/04/23 11:30:47;;;;;;;22.58;13.82;;;22.00;45.70;;;;;;7374769;19;20014;-76
2022/04/23 11:33:16;;;;;;;8.45;5.88;;;22.10;46.00;;;;;;7371347;19;20022;-77
2022/04/23 11:35:47;;;;;;;12.05;5.75;;;22.20;45.70;;;;;;7370474;19;20014;-75
2022/04/23 11:38:23;;;;;;;;;;;22.30;45.90;;;;;;7373867;19;20070;-75
2022/04/23 11:40:52;;;;;;;12.02;5.97;;;22.40;45.50;;;;;;7370650;19;19919;-76
2022/04/23 11:43:37;;;;;;;9.90;5.60;;;22.40;45.00;;;;;;7370150;19;20039;-75
2022/04/23 11:46:08;;;;;;;9.85;4.40;;;22.40;45.20;;;;;;7392015;19;20324;-77
2022/04/23 11:48:48;;;;;;;7.43;5.15;;;22.40;45.00;;;;;;7370012;19;20082;-78
2022/04/23 11:51:21;;;;;;;9.80;5.30;;;22.40;44.90;;;;;;7366035;19;20082;-77
2022/04/23 11:53:55;;;;;;;9.75;4.20;;;22.50;44.90;;;;;;7371289;19;20014;-77
2022/04/23 11:56:32;;;;;;;8.35;4.70;;;22.50;44.60;;;;;;7369334;19;20019;-78
2022/04/23 11:59:03;;;;;;;6.72;4.03;;;22.50;44.00;;;;;;7372827;19;20015;-77
2022/04/23 12:01:32;;;;;;;7.10;4.15;;;22.50;44.10;;;;;;7368700;19;20454;-76
2022/04/23 12:04:02;;;;;;;8.43;4.82;;;22.50;44.50;;;;;;7393531;19;20014;-77
2022/04/23 12:06:45;;;;;;;12.95;4.10;;;22.50;44.60;;;;;;7365706;19;20442;-77
2022/04/23 12:09:14;;;;;;;5.88;4.43;;;22.50;44.50;;;;;;7367947;19;20027;-77
2022/04/23 12:11:43;;;;;;;5.85;3.88;;;22.60;44.40;;;;;;7367341;19;20077;-75
2022/04/23 12:14:14;;;;;;;6.82;3.90;;;22.60;44.20;;;;;;7367782;19;20031;-75
2022/04/23 12:16:44;;;;;;;9.70;4.25;;;22.60;44.20;;;;;;7370639;19;20562;-75
2022/04/23 12:19:16;;;;;;;10.75;3.50;;;22.70;44.40;;;;;;7390960;19;20010;-76
2022/04/23 12:22:02;;;;;;;7.00;3.60;;;22.80;44.10;;;;;;7365165;19;20050;-76
2022/04/23 12:24:35;;;;;;;5.88;3.58;;;23.00;44.00;;;;;;7367629;19;20022;-77
2022/04/23 12:27:05;;;;;;;46.13;28.52;;;23.00;43.10;;;;;;7367768;19;20018;-76
2022/04/23 12:40:48;;;;;;;20.17;9.13;;;23.00;43.60;;;;;;7365918;19;19922;-77
2022/04/23 12:43:24;;;;;;;10.07;5.15;;;22.90;43.30;;;;;;7367817;19;20087;-78
2022/04/23 12:46:05;;;;;;;9.38;4.97;;;22.80;43.40;;;;;;7387102;19;20094;-76
2022/04/23 12:48:34;;;;;;;9.40;4.22;;;22.70;43.70;;;;;;7366102;19;20039;-77
2022/04/23 12:51:08;;;;;;;8.80;4.55;;;22.70;43.90;;;;;;7364313;19;20096;-77
2022/04/23 12:53:39;;;;;;;7.85;3.22;;;22.60;44.20;;;;;;7365790;19;20018;-76
2022/04/23 12:56:09;;;;;;;7.57;3.50;;;22.70;44.20;;;;;;7362393;19;20034;-76
2022/04/23 12:58:37;;;;;;;6.82;4.40;;;22.80;43.90;;;;;;7367295;19;20102;-76
2022/04/23 13:01:07;;;;;;;6.95;3.65;;;22.90;43.50;;;;;;7385445;19;20556;-76
2022/04/23 13:03:42;;;;;;;7.07;3.65;;;23.00;42.70;;;;;;7367240;19;20030;-76
2022/04/23 13:08:59;;;;;;;5.35;3.15;;;23.20;42.60;;;;;;7363798;19;20048;-77
2022/04/23 13:11:30;;;;;;;5.80;3.13;;;23.30;42.40;;;;;;7365688;19;20079;-77
2022/04/23 13:14:00;;;;;;;6.35;2.95;;;23.30;42.20;;;;;;7367039;19;20036;-76
2022/04/23 13:16:31;;;;;;;3.90;2.83;;;23.30;42.60;;;;;;7367935;19;20056;-80
2022/04/23 13:19:02;;;;;;;4.47;3.05;;;23.30;43.10;;;;;;7393678;19;20102;-78
2022/04/23 13:21:32;;;;;;;5.43;3.03;;;23.40;43.00;;;;;;7373443;19;20018;-78
2022/04/23 13:24:06;;;;;;;5.43;2.90;;;23.40;42.60;;;;;;7375120;19;20046;-77
2022/04/23 13:26:35;;;;;;;4.57;2.70;;;23.40;42.30;;;;;;7373044;19;20018;-78
2022/04/23 13:29:04;;;;;;;6.20;2.83;;;23.40;42.40;;;;;;7375230;19;20031;-78
2022/04/23 13:31:34;;;;;;;7.43;2.60;;;23.50;42.00;;;;;;7376338;19;20023;-78
2022/04/23 13:34:03;;;;;;;4.43;2.72;;;23.50;42.00;;;;;;7399043;19;20023;-79